createdAt,value
2023-03-27T00:00:01.378Z,87.09
2023-03-27T00:02:29.825Z,82.62
2023-03-27T00:04:57.512Z,82.00
2023-03-27T00:07:25.097Z,81.59
2023-03-27T00:09:53.430Z,81.36
2023-03-27T00:12:21.072Z,80.25
2023-03-27T00:14:48.746Z,78.48
2023-03-27T00:17:17.793Z,78.71
2023-03-27T00:19:45.615Z,79.16
2023-03-27T00:22:13.223Z,79.05
2023-03-27T00:24:40.928Z,78.58
2023-03-27T00:27:09.104Z,78.39
2023-03-27T00:29:37.098Z,77.84
2023-03-27T00:32:04.948Z,76.33
2023-03-27T00:34:33.979Z,75.83
2023-03-27T00:37:04.269Z,73.56
2023-03-27T00:39:32.109Z,74.15
2023-03-27T00:41:59.717Z,72.52
2023-03-27T00:44:31.217Z,73.04
2023-03-27T00:46:59.131Z,72.91
2023-03-27T00:49:28.769Z,73.62
2023-03-27T00:51:59.050Z,74.58
2023-03-27T00:54:30.042Z,75.17
2023-03-27T00:57:00.186Z,75.61
2023-03-27T00:59:31.031Z,74.60
2023-03-27T01:01:59.899Z,74.85
2023-03-27T01:04:27.503Z,74.70
2023-03-27T01:06:57.912Z,73.91
2023-03-27T01:09:26.971Z,73.12
2023-03-27T01:12:04.589Z,73.04
2023-03-27T01:14:37.894Z,73.40
2023-03-27T01:17:17.891Z,73.96
2023-03-27T01:20:03.834Z,74.83
2023-03-27T01:22:58.192Z,75.75
2023-03-27T01:25:45.943Z,75.61
2023-03-27T01:28:21.444Z,76.64
2023-03-27T01:30:51.474Z,76.97
2023-03-27T01:33:50.584Z,75.82
2023-03-27T01:36:29.032Z,76.42
2023-03-27T01:39:21.863Z,77.47
2023-03-27T01:41:53.176Z,78.16
2023-03-27T01:44:26.672Z,78.50
2023-03-27T01:47:17.453Z,78.82
2023-03-27T01:49:48.418Z,79.41
2023-03-27T01:52:19.917Z,79.88
2023-03-27T01:54:55.751Z,80.99
2023-03-27T01:57:25.345Z,81.08
2023-03-27T01:59:55.948Z,81.44
2023-03-27T02:02:27.316Z,81.87
2023-03-27T02:04:59.443Z,81.92
2023-03-27T02:07:31.273Z,82.24
2023-03-27T02:10:03.138Z,83.33
2023-03-27T02:12:32.569Z,83.77
2023-03-27T02:15:23.723Z,83.46
2023-03-27T02:17:58.022Z,83.73
2023-03-27T02:20:25.700Z,82.89
2023-03-27T02:22:53.857Z,83.18
2023-03-27T02:25:29.410Z,83.41
2023-03-27T02:28:09.442Z,83.66
2023-03-27T02:30:41.490Z,83.74
2023-03-27T02:33:15.445Z,84.04
2023-03-27T02:35:49.854Z,84.23
2023-03-27T02:38:20.422Z,83.84
2023-03-27T02:40:57.005Z,83.57
2023-03-27T02:43:30.188Z,83.61
2023-03-27T02:46:00.759Z,83.77
2023-03-27T02:48:31.630Z,83.93
2023-03-27T02:51:02.883Z,83.11
2023-03-27T02:53:33.416Z,83.28
2023-03-27T02:56:04.310Z,83.70
2023-03-27T02:58:36.715Z,84.09
2023-03-27T03:01:05.186Z,83.89
2023-03-27T03:03:35.848Z,83.46
2023-03-27T03:06:07.065Z,83.15
2023-03-27T03:08:38.079Z,83.08
2023-03-27T03:11:09.036Z,83.25
2023-03-27T03:13:37.844Z,83.42
2023-03-27T03:16:06.322Z,83.34
2023-03-27T03:18:33.996Z,83.39
2023-03-27T03:21:01.564Z,83.28
2023-03-27T03:23:29.184Z,83.56
2023-03-27T03:25:57.499Z,83.09
2023-03-27T03:28:26.841Z,83.48
2023-03-27T03:30:54.666Z,83.22
2023-03-27T03:33:22.714Z,83.14
2023-03-27T03:35:51.423Z,83.50
2023-03-27T03:38:26.353Z,82.85
2023-03-27T03:40:55.219Z,83.62
2023-03-27T03:43:23.497Z,84.10
2023-03-27T03:45:52.657Z,83.47
2023-03-27T03:48:21.207Z,83.89
2023-03-27T03:50:49.725Z,84.81
2023-03-27T03:53:18.758Z,84.82
2023-03-27T03:55:46.775Z,84.97
2023-03-27T03:58:14.358Z,84.88
2023-03-27T04:00:43.501Z,84.58
2023-03-27T04:03:14.699Z,84.95
2023-03-27T04:05:42.493Z,84.35
2023-03-27T04:08:10.192Z,84.96
2023-03-27T04:10:39.317Z,85.45
2023-03-27T04:13:07.354Z,85.71
2023-03-27T04:15:34.982Z,85.89
2023-03-27T04:18:02.755Z,85.65
2023-03-27T04:20:34.668Z,86.06
2023-03-27T04:23:03.197Z,86.33
2023-03-27T04:25:31.133Z,86.37
2023-03-27T04:27:58.746Z,86.17
2023-03-27T04:30:27.634Z,85.88
2023-03-27T04:32:59.876Z,86.18
2023-03-27T04:35:27.792Z,87.28
2023-03-27T04:37:56.768Z,87.42
2023-03-27T04:40:25.283Z,86.90
2023-03-27T04:42:55.784Z,86.88
2023-03-27T04:45:25.600Z,87.42
2023-03-27T04:47:54.447Z,87.03
2023-03-27T04:50:22.274Z,86.95
2023-03-27T04:52:51.630Z,87.25
2023-03-27T04:55:22.907Z,88.35
2023-03-27T04:57:50.660Z,88.19
2023-03-27T05:00:19.770Z,88.07
2023-03-27T05:02:48.529Z,88.23
2023-03-27T05:05:16.938Z,88.02
2023-03-27T05:07:46.129Z,87.93
2023-03-27T05:10:14.512Z,88.39
2023-03-27T05:12:45.326Z,88.26
2023-03-27T05:15:13.373Z,87.88
2023-03-27T05:17:42.134Z,87.62
2023-03-27T05:20:12.340Z,88.04
2023-03-27T05:22:39.993Z,88.38
2023-03-27T05:25:08.651Z,87.71
2023-03-27T05:27:36.474Z,87.71
2023-03-27T05:30:06.443Z,88.33
2023-03-27T05:32:35.521Z,88.27
2023-03-27T05:35:05.286Z,88.07
2023-03-27T05:37:33.737Z,88.00
2023-03-27T05:40:01.365Z,87.70
2023-03-27T05:42:29.020Z,87.75
2023-03-27T05:44:56.696Z,87.85
2023-03-27T05:47:25.759Z,87.83
2023-03-27T05:49:53.395Z,87.28
2023-03-27T05:52:20.942Z,87.54
2023-03-27T05:54:56.818Z,88.01
2023-03-27T05:57:24.396Z,87.14
2023-03-27T05:59:52.709Z,86.84
2023-03-27T06:02:21.646Z,86.33
2023-03-27T06:04:52.200Z,85.76
2023-03-27T06:07:20.254Z,86.34
2023-03-27T06:09:47.860Z,86.05
2023-03-27T06:12:16.296Z,85.93
2023-03-27T06:14:43.865Z,85.68
2023-03-27T06:17:11.632Z,85.30
2023-03-27T06:19:39.233Z,84.92
2023-03-27T06:22:09.028Z,85.46
2023-03-27T06:24:36.678Z,85.72
2023-03-27T06:27:04.554Z,85.25
2023-03-27T06:29:32.218Z,85.63
2023-03-27T06:32:01.559Z,84.64
2023-03-27T06:34:29.181Z,85.00
2023-03-27T06:36:59.965Z,85.35
2023-03-27T06:39:29.042Z,85.52
2023-03-27T06:41:56.704Z,85.79
2023-03-27T06:44:24.257Z,85.36
2023-03-27T06:46:51.914Z,85.32
2023-03-27T06:49:19.488Z,85.18
2023-03-27T06:51:47.104Z,84.70
2023-03-27T06:54:14.723Z,84.38
2023-03-27T06:56:44.524Z,84.69
2023-03-27T06:59:12.207Z,83.85
2023-03-27T07:01:39.869Z,83.51
2023-03-27T07:04:07.622Z,82.12
2023-03-27T07:06:35.254Z,82.31
2023-03-27T07:09:02.918Z,83.08
2023-03-27T07:11:32.052Z,82.55
2023-03-27T07:14:01.403Z,83.05
2023-03-27T07:16:29.144Z,83.11
2023-03-27T07:18:58.370Z,83.50
2023-03-27T07:21:27.812Z,82.58
2023-03-27T07:23:55.400Z,82.84
2023-03-27T07:26:23.418Z,82.61
2023-03-27T07:28:51.709Z,82.81
2023-03-27T07:31:35.005Z,82.65
2023-03-27T07:34:05.521Z,82.75
2023-03-27T07:36:33.694Z,80.35
2023-03-27T07:39:01.363Z,81.47
2023-03-27T07:41:30.167Z,79.65
2023-03-27T07:43:57.912Z,80.23
2023-03-27T07:46:28.013Z,81.87
2023-03-27T07:48:56.599Z,80.33
2023-03-27T07:51:24.197Z,79.33
2023-03-27T07:53:56.513Z,79.12
2023-03-27T07:56:24.550Z,79.30
2023-03-27T07:58:53.056Z,78.19
2023-03-27T08:01:20.618Z,78.03
2023-03-27T08:03:49.732Z,78.06
2023-03-27T08:06:17.587Z,77.08
2023-03-27T08:08:45.548Z,77.26
2023-03-27T08:11:23.065Z,77.63
2023-03-27T08:13:58.311Z,77.97
2023-03-27T08:16:28.953Z,78.07
2023-03-27T08:18:58.583Z,76.68
2023-03-27T08:21:26.157Z,74.58
2023-03-27T08:23:57.381Z,75.14
2023-03-27T08:26:26.446Z,74.11
2023-03-27T08:28:55.970Z,74.57
2023-03-27T08:31:24.017Z,74.87
2023-03-27T08:33:51.897Z,75.72
2023-03-27T08:36:20.955Z,75.00
2023-03-27T08:38:49.067Z,75.20
2023-03-27T08:41:27.037Z,75.75
2023-03-27T08:43:57.158Z,75.11
2023-03-27T08:46:28.733Z,74.50
2023-03-27T08:48:58.955Z,73.09
2023-03-27T08:51:29.110Z,74.08
2023-03-27T08:53:59.095Z,72.02
2023-03-27T08:56:27.296Z,72.28
2023-03-27T08:58:55.301Z,70.91
2023-03-27T09:01:29.388Z,70.62
2023-03-27T09:04:01.850Z,70.36
2023-03-27T09:06:38.179Z,70.18
2023-03-27T09:09:10.739Z,70.28
2023-03-27T09:11:47.971Z,69.18
2023-03-27T09:14:23.867Z,70.24
2023-03-27T09:16:52.939Z,69.37
2023-03-27T09:19:23.768Z,69.32
2023-03-27T09:21:57.934Z,68.03
2023-03-27T09:24:30.355Z,69.07
2023-03-27T09:27:06.617Z,70.25
2023-03-27T09:29:37.905Z,69.46
2023-03-27T09:32:11.825Z,70.41
2023-03-27T09:34:39.371Z,65.93
2023-03-27T09:37:11.914Z,67.65
2023-03-27T09:39:42.806Z,69.16
2023-03-27T09:42:17.263Z,68.33
2023-03-27T09:44:47.239Z,68.17
2023-03-27T09:47:16.516Z,66.69
2023-03-27T09:49:49.151Z,67.70
2023-03-27T09:52:35.454Z,66.48
2023-03-27T09:55:03.822Z,66.32
2023-03-27T09:57:33.822Z,68.57
2023-03-27T10:00:09.762Z,73.35
2023-03-27T10:02:38.087Z,79.13
2023-03-27T10:05:12.220Z,84.59
2023-03-27T10:07:42.383Z,87.47
2023-03-27T10:10:12.574Z,89.80
2023-03-27T10:12:40.555Z,91.48
2023-03-27T10:15:27.877Z,92.46
2023-03-27T10:17:55.882Z,94.07
2023-03-27T10:20:24.299Z,95.03
2023-03-27T10:22:55.667Z,96.71
2023-03-27T10:25:28.881Z,97.99
2023-03-27T10:28:09.099Z,98.25
2023-03-27T10:30:38.111Z,98.58
2023-03-27T10:33:06.135Z,99.16
2023-03-27T10:35:36.760Z,99.42
2023-03-27T10:38:11.452Z,96.17
2023-03-27T10:40:40.949Z,94.74
2023-03-27T10:43:12.867Z,92.49
2023-03-27T10:45:46.783Z,90.11
2023-03-27T10:48:20.136Z,89.47
2023-03-27T10:50:53.360Z,86.50
2023-03-27T10:53:25.476Z,85.47
2023-03-27T10:56:00.602Z,84.69
2023-03-27T10:58:34.125Z,84.52
2023-03-27T11:01:07.329Z,82.17
2023-03-27T11:03:38.685Z,82.15
2023-03-27T11:06:09.105Z,81.70
2023-03-27T11:08:47.982Z,80.44
2023-03-27T11:11:19.356Z,79.21
2023-03-27T11:13:48.252Z,80.79
2023-03-27T11:16:19.573Z,79.74
2023-03-27T11:18:51.090Z,78.58
2023-03-27T11:21:23.158Z,75.24
2023-03-27T11:23:55.862Z,75.34
2023-03-27T11:26:29.318Z,73.85
2023-03-27T11:28:59.074Z,73.50
2023-03-27T11:31:39.224Z,74.38
2023-03-27T11:34:12.338Z,73.24
2023-03-27T11:36:45.849Z,74.70
2023-03-27T11:39:22.618Z,73.37
2023-03-27T11:41:54.574Z,74.51
2023-03-27T11:44:22.548Z,73.98
2023-03-27T11:47:01.275Z,72.65
2023-03-27T11:49:47.765Z,70.73
2023-03-27T11:52:24.989Z,72.19
2023-03-27T11:55:09.986Z,71.24
2023-03-27T11:57:44.008Z,71.65
2023-03-27T12:00:18.325Z,72.02
2023-03-27T12:03:21.929Z,72.44
2023-03-27T12:06:10.319Z,68.95
2023-03-27T12:08:48.262Z,64.88
2023-03-27T12:11:17.867Z,65.63
2023-03-27T12:14:05.394Z,66.00
2023-03-27T12:17:01.228Z,69.65
2023-03-27T12:19:43.005Z,76.20
2023-03-27T12:22:23.909Z,78.76
2023-03-27T12:25:02.003Z,80.61
2023-03-27T12:27:53.394Z,80.82
2023-03-27T12:30:27.660Z,81.90
2023-03-27T12:33:29.931Z,80.35
2023-03-27T12:35:59.562Z,79.38
2023-03-27T12:38:29.663Z,78.46
2023-03-27T12:41:03.938Z,76.43
2023-03-27T12:43:39.323Z,75.41
2023-03-27T12:46:17.086Z,71.60
2023-03-27T12:48:56.046Z,73.10
2023-03-27T12:51:38.778Z,73.41
2023-03-27T12:54:15.811Z,75.10
2023-03-27T12:56:43.708Z,74.24
2023-03-27T12:59:20.998Z,72.91
2023-03-27T13:02:30.804Z,74.02
2023-03-27T13:05:36.085Z,74.08
2023-03-27T13:08:16.883Z,72.48
2023-03-27T13:10:53.492Z,72.42
2023-03-27T13:13:44.365Z,73.04
2023-03-27T13:16:28.193Z,70.85
2023-03-27T13:19:06.431Z,68.63
2023-03-27T13:21:39.489Z,68.49
2023-03-27T13:24:20.298Z,66.58
2023-03-27T13:27:00.457Z,66.78
2023-03-27T13:29:32.538Z,65.50
2023-03-27T13:32:03.622Z,64.89
2023-03-27T13:34:41.721Z,63.92
2023-03-27T13:37:59.028Z,63.14
2023-03-27T13:40:31.162Z,61.23
2023-03-27T13:43:18.005Z,61.29
2023-03-27T13:45:48.480Z,62.07
2023-03-27T13:48:50.439Z,60.41
2023-03-27T13:51:35.330Z,62.09
2023-03-27T13:54:35.472Z,63.78
2023-03-27T13:57:14.126Z,62.53
2023-03-27T13:59:59.384Z,62.28
2023-03-27T14:02:48.143Z,61.36
2023-03-27T14:05:30.061Z,60.21
2023-03-27T14:08:30.189Z,58.71
2023-03-27T14:11:23.709Z,58.27
2023-03-27T14:14:03.964Z,55.67
2023-03-27T14:16:53.235Z,54.50
2023-03-27T14:19:33.459Z,54.60
2023-03-27T14:22:03.451Z,52.83
2023-03-27T14:24:37.612Z,55.14
2023-03-27T14:27:06.998Z,52.88
2023-03-27T14:29:34.778Z,52.48
2023-03-27T14:32:03.926Z,52.02
2023-03-27T14:34:47.099Z,51.77
2023-03-27T14:37:29.240Z,51.38
2023-03-27T14:40:00.506Z,52.31
2023-03-27T14:42:32.050Z,53.78
2023-03-27T14:45:11.468Z,53.34
2023-03-27T14:47:39.252Z,53.15
2023-03-27T14:50:07.594Z,54.03
2023-03-27T14:52:36.175Z,54.71
2023-03-27T14:55:06.250Z,54.21
2023-03-27T14:57:34.155Z,51.99
2023-03-27T15:00:06.580Z,52.45
2023-03-27T15:02:37.422Z,51.02
2023-03-27T15:05:09.597Z,51.83
2023-03-27T15:07:37.798Z,52.53
2023-03-27T15:10:22.463Z,53.33
2023-03-27T15:12:50.215Z,53.49
2023-03-27T15:15:23.390Z,53.76
2023-03-27T15:17:54.685Z,56.55
2023-03-27T15:20:25.141Z,61.14
2023-03-27T15:22:59.255Z,62.69
2023-03-27T15:25:34.250Z,65.39
2023-03-27T15:28:06.991Z,66.78
2023-03-27T15:30:37.317Z,66.61
2023-03-27T15:33:06.148Z,66.71
2023-03-27T15:35:35.604Z,67.39
2023-03-27T15:38:03.697Z,68.54
2023-03-27T15:40:36.614Z,67.14
2023-03-27T15:43:07.729Z,67.22
2023-03-27T15:45:38.191Z,68.28
2023-03-27T15:48:07.902Z,69.13
2023-03-27T15:50:35.771Z,69.30
2023-03-27T15:53:03.696Z,69.96
2023-03-27T15:55:38.770Z,70.68
2023-03-27T15:58:17.571Z,71.21
2023-03-27T16:00:47.440Z,70.06
2023-03-27T16:03:18.961Z,70.13
2023-03-27T16:05:48.185Z,70.93
2023-03-27T16:08:28.286Z,71.90
2023-03-27T16:10:58.384Z,71.78
2023-03-27T16:13:28.438Z,72.31
2023-03-27T16:16:00.573Z,71.04
2023-03-27T16:18:32.248Z,71.54
2023-03-27T16:21:08.078Z,72.68
2023-03-27T16:23:35.899Z,70.66
2023-03-27T16:26:06.727Z,68.25
2023-03-27T16:28:34.777Z,67.03
2023-03-27T16:31:11.269Z,67.78
2023-03-27T16:33:38.940Z,75.48
2023-03-27T16:36:07.363Z,79.32
2023-03-27T16:38:39.717Z,80.38
2023-03-27T16:41:13.347Z,81.38
2023-03-27T16:43:42.219Z,82.69
2023-03-27T16:46:17.065Z,84.21
2023-03-27T16:48:47.431Z,85.47
2023-03-27T16:51:16.108Z,85.12
2023-03-27T16:53:44.726Z,84.99
2023-03-27T16:56:14.240Z,86.05
2023-03-27T16:58:43.041Z,85.00
2023-03-27T17:01:11.193Z,83.93
2023-03-27T17:03:40.066Z,83.18
2023-03-27T17:06:10.208Z,82.54
2023-03-27T17:08:38.188Z,82.20
2023-03-27T17:11:08.150Z,80.94
2023-03-27T17:13:37.391Z,78.53
2023-03-27T17:16:06.315Z,77.55
2023-03-27T17:18:34.059Z,76.25
2023-03-27T17:21:01.706Z,75.83
2023-03-27T17:23:29.301Z,75.74
2023-03-27T17:26:00.638Z,74.68
2023-03-27T17:28:28.313Z,74.76
2023-03-27T17:31:04.518Z,75.62
2023-03-27T17:33:33.475Z,76.27
2023-03-27T17:36:02.116Z,76.50
2023-03-27T17:38:30.662Z,76.57
2023-03-27T17:40:58.856Z,76.50
2023-03-27T17:43:26.452Z,76.86
2023-03-27T17:45:54.770Z,77.56
2023-03-27T17:48:23.892Z,78.02
2023-03-27T17:51:05.257Z,78.09
2023-03-27T17:53:36.331Z,78.52
2023-03-27T17:56:03.951Z,78.61
2023-03-27T17:58:34.083Z,78.78
2023-03-27T18:01:03.253Z,79.60
2023-03-27T18:03:33.791Z,79.26
2023-03-27T18:06:03.808Z,80.29
2023-03-27T18:08:31.905Z,81.10
2023-03-27T18:10:59.594Z,81.67
2023-03-27T18:13:27.869Z,82.56
2023-03-27T18:15:57.819Z,83.47
2023-03-27T18:18:25.766Z,83.67
2023-03-27T18:20:55.216Z,84.12
2023-03-27T18:23:23.070Z,84.09
2023-03-27T18:25:50.643Z,85.58
2023-03-27T18:28:18.315Z,85.17
2023-03-27T18:30:46.455Z,85.89
2023-03-27T18:33:14.674Z,86.12
2023-03-27T18:35:42.685Z,85.81
2023-03-27T18:38:12.067Z,86.41
2023-03-27T18:40:39.616Z,85.35
2023-03-27T18:43:07.351Z,84.17
2023-03-27T18:45:35.570Z,82.85
2023-03-27T18:48:03.286Z,82.36
2023-03-27T18:50:30.831Z,82.34
2023-03-27T18:52:58.437Z,84.02
2023-03-27T18:55:27.440Z,84.89
2023-03-27T18:57:55.159Z,84.91
2023-03-27T19:00:23.219Z,86.04
2023-03-27T19:02:51.089Z,86.64
2023-03-27T19:05:18.965Z,86.80
2023-03-27T19:07:46.950Z,86.91
2023-03-27T19:10:14.679Z,87.45
2023-03-27T19:12:43.564Z,87.51
2023-03-27T19:15:19.848Z,87.14
2023-03-27T19:17:48.479Z,82.60
2023-03-27T19:20:16.233Z,78.29
2023-03-27T19:22:43.823Z,76.56
2023-03-27T19:25:11.439Z,76.06
2023-03-27T19:27:39.414Z,74.62
2023-03-27T19:30:10.375Z,74.36
2023-03-27T19:32:38.272Z,74.40
2023-03-27T19:35:07.025Z,74.75
2023-03-27T19:37:34.648Z,74.98
2023-03-27T19:40:02.391Z,74.73
2023-03-27T19:42:30.087Z,74.89
2023-03-27T19:44:58.027Z,75.23
2023-03-27T19:47:27.106Z,75.59
2023-03-27T19:49:54.992Z,76.21
2023-03-27T19:52:23.002Z,76.85
2023-03-27T19:54:50.673Z,77.08
2023-03-27T19:57:18.484Z,77.87
2023-03-27T19:59:46.526Z,77.89
2023-03-27T20:02:14.517Z,78.42
2023-03-27T20:04:43.587Z,78.67
2023-03-27T20:07:11.180Z,78.48
2023-03-27T20:09:38.914Z,78.99
2023-03-27T20:12:07.430Z,79.56
2023-03-27T20:14:35.018Z,79.39
2023-03-27T20:17:02.605Z,79.44
2023-03-27T20:19:31.203Z,80.12
2023-03-27T20:22:00.222Z,79.97
2023-03-27T20:24:28.845Z,80.30
2023-03-27T20:26:58.330Z,80.92
2023-03-27T20:29:26.488Z,81.77
2023-03-27T20:31:54.124Z,82.71
2023-03-27T20:34:22.555Z,82.43
2023-03-27T20:36:53.264Z,80.86
2023-03-27T20:39:22.992Z,80.36
2023-03-27T20:41:51.245Z,81.30
2023-03-27T20:44:19.029Z,82.11
2023-03-27T20:46:51.080Z,82.68
2023-03-27T20:51:57.100Z,83.86
2023-03-27T20:54:27.215Z,84.57
2023-03-27T20:56:55.056Z,84.69
2023-03-27T20:59:22.992Z,86.03
2023-03-27T21:01:50.794Z,86.70
2023-03-27T21:04:18.507Z,86.03
2023-03-27T21:06:46.177Z,86.89
2023-03-27T21:09:14.607Z,86.76
2023-03-27T21:11:47.418Z,86.54
2023-03-27T21:14:15.046Z,86.64
2023-03-27T21:16:42.869Z,86.72
2023-03-27T21:19:11.882Z,86.53
2023-03-27T21:21:39.900Z,86.79
2023-03-27T21:24:07.975Z,86.76
2023-03-27T21:26:36.272Z,86.45
2023-03-27T21:29:05.559Z,86.59
2023-03-27T21:31:33.370Z,86.72
2023-03-27T21:34:01.004Z,87.30
2023-03-27T21:36:29.814Z,87.20
2023-03-27T21:38:57.942Z,86.97
2023-03-27T21:41:26.629Z,86.56
2023-03-27T21:43:54.248Z,86.79
2023-03-27T21:46:23.289Z,86.88
2023-03-27T21:48:51.181Z,86.82
2023-03-27T21:51:19.249Z,86.62
2023-03-27T21:53:47.458Z,86.83
2023-03-27T21:56:15.229Z,84.97
2023-03-27T21:58:42.903Z,85.81
2023-03-27T22:01:10.812Z,85.37
2023-03-27T22:03:39.823Z,86.22
2023-03-27T22:06:12.153Z,86.73
2023-03-27T22:08:41.612Z,86.79
2023-03-27T22:11:10.088Z,87.14
2023-03-27T22:13:38.725Z,87.27
2023-03-27T22:16:09.392Z,87.97
2023-03-27T22:18:37.077Z,87.80
2023-03-27T22:21:15.342Z,88.15
2023-03-27T22:23:43.018Z,88.24
2023-03-27T22:26:11.177Z,88.52
2023-03-27T22:28:38.881Z,88.05
2023-03-27T22:31:07.481Z,89.18
2023-03-27T22:33:35.437Z,89.39
2023-03-27T22:36:03.391Z,89.50
2023-03-27T22:38:33.467Z,89.79
2023-03-27T22:41:01.394Z,90.41
2023-03-27T22:43:29.839Z,90.66
2023-03-27T22:45:58.096Z,91.15
2023-03-27T22:48:26.020Z,91.07
2023-03-27T22:50:58.050Z,91.06
2023-03-27T22:53:26.901Z,91.05
2023-03-27T22:55:59.107Z,90.74
2023-03-27T22:58:27.423Z,91.15
2023-03-27T23:00:56.224Z,91.78
2023-03-27T23:03:24.714Z,91.66
2023-03-27T23:05:53.282Z,91.85
2023-03-27T23:08:23.864Z,91.71
2023-03-27T23:10:57.248Z,91.67
2023-03-27T23:13:25.360Z,92.28
2023-03-27T23:15:53.004Z,91.89
2023-03-27T23:18:23.842Z,91.58
2023-03-27T23:20:55.061Z,92.28
2023-03-27T23:23:23.102Z,91.85
2023-03-27T23:25:51.594Z,92.53
2023-03-27T23:28:20.660Z,92.96
2023-03-27T23:30:53.572Z,92.92
2023-03-27T23:33:22.844Z,93.54
2023-03-27T23:35:50.547Z,93.48
2023-03-27T23:38:18.441Z,93.78
2023-03-27T23:40:46.262Z,93.74
2023-03-27T23:43:14.111Z,93.52
2023-03-27T23:45:43.875Z,93.85
2023-03-27T23:48:11.994Z,94.18
2023-03-27T23:50:39.790Z,94.55
2023-03-27T23:53:07.456Z,94.89
2023-03-27T23:55:35.247Z,94.42
2023-03-27T23:58:03.375Z,94.87
